createdAt,value
2023-02-25T00:01:24.080Z,9.67
2023-02-25T00:03:54.095Z,9.19
2023-02-25T00:06:23.660Z,9.31
2023-02-25T00:08:54.452Z,9.35
2023-02-25T00:11:24.078Z,9.36
2023-02-25T00:13:53.120Z,9.50
2023-02-25T00:16:22.886Z,9.51
2023-02-25T00:18:55.111Z,9.37
2023-02-25T00:21:24.013Z,9.71
2023-02-25T00:23:54.436Z,9.54
2023-02-25T00:26:23.924Z,9.55
2023-02-25T00:28:53.204Z,9.44
2023-02-25T00:31:23.941Z,9.47
2023-02-25T00:33:54.095Z,9.51
2023-02-25T00:36:24.397Z,9.63
2023-02-25T00:38:56.433Z,9.67
2023-02-25T00:41:26.871Z,9.62
2023-02-25T00:43:56.564Z,9.66
2023-02-25T00:46:26.158Z,9.32
2023-02-25T00:48:54.543Z,9.21
2023-02-25T00:51:24.864Z,9.71
2023-02-25T00:53:56.313Z,9.40
2023-02-25T00:56:26.148Z,9.60
2023-02-25T00:58:54.430Z,9.72
2023-02-25T01:01:25.646Z,9.57
2023-02-25T01:03:56.612Z,9.44
2023-02-25T01:06:25.763Z,9.65
2023-02-25T01:08:56.275Z,9.67
2023-02-25T01:11:27.609Z,9.67
2023-02-25T01:13:56.997Z,9.38
2023-02-25T01:16:27.374Z,9.59
2023-02-25T01:18:57.861Z,9.53
2023-02-25T01:21:29.003Z,9.60
2023-02-25T01:24:01.101Z,9.71
2023-02-25T01:26:31.379Z,9.68
2023-02-25T01:29:00.293Z,9.29
2023-02-25T01:31:29.620Z,9.47
2023-02-25T01:33:59.013Z,9.64
2023-02-25T01:36:27.408Z,9.31
2023-02-25T01:38:56.368Z,9.47
2023-02-25T01:41:28.490Z,9.35
2023-02-25T01:44:10.927Z,9.36
2023-02-25T01:46:40.077Z,9.41
2023-02-25T01:49:14.424Z,9.52
2023-02-25T01:51:45.532Z,9.24
2023-02-25T01:54:15.402Z,9.12
2023-02-25T01:56:49.782Z,9.47
2023-02-25T01:59:20.730Z,9.50
2023-02-25T02:01:49.155Z,9.49
2023-02-25T02:04:19.975Z,9.03
2023-02-25T02:06:50.065Z,9.23
2023-02-25T02:09:22.041Z,9.06
2023-02-25T02:11:51.417Z,9.35
2023-02-25T02:14:24.441Z,9.12
2023-02-25T02:17:06.035Z,9.26
2023-02-25T02:19:49.670Z,9.49
2023-02-25T02:22:24.900Z,9.25
2023-02-25T02:25:17.650Z,9.06
2023-02-25T02:28:10.970Z,8.95
2023-02-25T02:30:57.018Z,8.97
2023-02-25T02:33:37.729Z,8.35
2023-02-25T02:36:14.416Z,8.44
2023-02-25T02:38:50.741Z,8.77
2023-02-25T02:41:26.344Z,8.69
2023-02-25T02:44:03.804Z,8.38
2023-02-25T02:46:38.374Z,8.11
2023-02-25T02:49:13.151Z,7.88
2023-02-25T02:51:47.706Z,7.78
2023-02-25T02:54:17.317Z,7.61
2023-02-25T02:56:49.500Z,7.58
2023-02-25T02:59:24.976Z,7.47
2023-02-25T03:01:58.163Z,7.38
2023-02-25T03:04:34.930Z,7.34
2023-02-25T03:07:06.731Z,7.56
2023-02-25T03:09:39.207Z,7.47
2023-02-25T03:12:08.927Z,7.40
2023-02-25T03:14:38.337Z,7.26
2023-02-25T03:17:10.815Z,7.67
2023-02-25T03:19:43.727Z,7.48
2023-02-25T03:22:14.852Z,7.22
2023-02-25T03:24:49.799Z,7.47
2023-02-25T03:27:25.774Z,7.20
2023-02-25T03:30:01.934Z,7.14
2023-02-25T03:32:32.393Z,7.07
2023-02-25T03:35:05.223Z,7.52
2023-02-25T03:37:35.754Z,7.44
2023-02-25T03:40:11.474Z,7.40
2023-02-25T03:42:45.363Z,7.07
2023-02-25T03:45:16.579Z,6.80
2023-02-25T03:47:45.052Z,6.92
2023-02-25T03:50:20.200Z,6.79
2023-02-25T03:52:48.771Z,6.74
2023-02-25T03:55:19.744Z,7.08
2023-02-25T03:57:51.701Z,6.94
2023-02-25T04:00:27.644Z,7.07
2023-02-25T04:02:56.660Z,7.11
2023-02-25T04:05:27.864Z,6.81
2023-02-25T04:07:57.038Z,6.97
2023-02-25T04:10:26.734Z,6.97
2023-02-25T04:12:54.919Z,7.11
2023-02-25T04:15:23.818Z,7.26
2023-02-25T04:17:53.407Z,7.17
2023-02-25T04:20:21.534Z,7.03
2023-02-25T04:22:51.070Z,7.25
2023-02-25T04:25:19.257Z,7.56
2023-02-25T04:27:47.325Z,7.38
2023-02-25T04:30:16.468Z,7.31
2023-02-25T04:32:45.035Z,7.76
2023-02-25T04:35:13.670Z,7.57
2023-02-25T04:37:43.688Z,7.59
2023-02-25T04:40:15.969Z,7.79
2023-02-25T04:42:44.740Z,7.62
2023-02-25T04:45:13.797Z,7.77
2023-02-25T04:47:42.643Z,7.71
2023-02-25T04:50:12.424Z,7.91
2023-02-25T04:52:40.699Z,7.75
2023-02-25T04:55:10.011Z,7.85
2023-02-25T04:57:42.676Z,7.71
2023-02-25T05:00:19.634Z,7.77
2023-02-25T05:02:48.912Z,7.93
2023-02-25T05:05:17.965Z,7.92
2023-02-25T05:07:46.245Z,7.82
2023-02-25T05:10:15.587Z,8.03
2023-02-25T05:12:45.477Z,7.74
2023-02-25T05:15:13.898Z,7.89
2023-02-25T05:17:42.229Z,7.78
2023-02-25T05:20:13.096Z,7.65
2023-02-25T05:22:42.259Z,7.65
2023-02-25T05:25:12.221Z,7.67
2023-02-25T05:30:12.752Z,8.06
2023-02-25T05:32:41.193Z,7.92
2023-02-25T05:35:12.093Z,7.92
2023-02-25T05:37:40.598Z,7.65
2023-02-25T05:40:10.388Z,7.78
2023-02-25T05:42:38.779Z,7.98
2023-02-25T05:45:08.905Z,7.98
2023-02-25T05:47:38.419Z,7.99
2023-02-25T05:50:07.520Z,8.06
2023-02-25T05:52:35.539Z,7.93
2023-02-25T05:55:04.394Z,7.96
2023-02-25T05:57:32.689Z,8.26
2023-02-25T06:00:01.604Z,7.84
2023-02-25T06:02:29.834Z,8.13
2023-02-25T06:04:59.406Z,8.16
2023-02-25T06:07:30.383Z,8.02
2023-02-25T06:10:00.753Z,8.03
2023-02-25T06:12:30.219Z,7.69
2023-02-25T06:14:59.008Z,7.95
2023-02-25T06:17:27.227Z,8.05
2023-02-25T06:19:56.311Z,7.81
2023-02-25T06:22:26.027Z,8.00
2023-02-25T06:24:54.034Z,7.91
2023-02-25T06:27:22.493Z,8.12
2023-02-25T06:29:50.878Z,8.11
2023-02-25T06:32:19.554Z,8.07
2023-02-25T06:34:47.687Z,8.03
2023-02-25T06:37:16.572Z,8.21
2023-02-25T06:39:45.790Z,8.05
2023-02-25T06:42:13.810Z,8.33
2023-02-25T06:44:42.065Z,8.28
2023-02-25T06:47:10.157Z,8.06
2023-02-25T06:49:38.283Z,8.38
2023-02-25T06:52:06.549Z,8.15
2023-02-25T06:54:34.688Z,8.40
2023-02-25T06:57:08.512Z,7.93
2023-02-25T06:59:48.347Z,8.34
2023-02-25T07:02:19.197Z,8.18
2023-02-25T07:04:47.611Z,8.14
2023-02-25T07:07:15.664Z,8.06
2023-02-25T07:09:43.693Z,7.62
2023-02-25T07:12:13.426Z,8.00
2023-02-25T07:14:41.507Z,8.17
2023-02-25T07:17:09.475Z,7.98
2023-02-25T07:19:37.790Z,8.34
2023-02-25T07:22:06.261Z,7.79
2023-02-25T07:24:34.259Z,7.84
2023-02-25T07:27:02.922Z,7.57
2023-02-25T07:29:32.230Z,7.80
2023-02-25T07:32:01.212Z,7.91
2023-02-25T07:34:29.607Z,7.74
2023-02-25T07:36:57.729Z,7.78
2023-02-25T07:39:25.769Z,7.70
2023-02-25T07:41:54.111Z,7.85
2023-02-25T07:44:22.148Z,8.13
2023-02-25T07:46:51.483Z,7.91
2023-02-25T07:49:19.758Z,7.73
2023-02-25T07:51:47.837Z,7.85
2023-02-25T07:54:17.216Z,8.12
2023-02-25T07:56:45.679Z,7.64
2023-02-25T07:59:14.264Z,7.67
2023-02-25T08:01:42.339Z,7.84
2023-02-25T08:04:12.110Z,7.35
2023-02-25T08:06:41.485Z,7.78
2023-02-25T08:09:12.295Z,7.74
2023-02-25T08:11:41.753Z,7.58
2023-02-25T08:14:09.899Z,7.10
2023-02-25T08:16:38.521Z,7.32
2023-02-25T08:19:07.515Z,7.27
2023-02-25T08:21:37.467Z,7.25
2023-02-25T08:24:06.235Z,7.58
2023-02-25T08:26:35.198Z,6.95
2023-02-25T08:29:03.685Z,7.42
2023-02-25T08:31:31.796Z,7.54
2023-02-25T08:34:00.355Z,7.46
2023-02-25T08:36:31.486Z,7.62
2023-02-25T08:39:01.621Z,7.74
2023-02-25T08:41:30.712Z,7.68
2023-02-25T08:44:01.248Z,7.83
2023-02-25T08:46:32.853Z,7.98
2023-02-25T08:49:02.300Z,8.11
2023-02-25T08:51:35.311Z,8.07
2023-02-25T08:54:07.815Z,8.14
2023-02-25T08:56:37.496Z,8.13
2023-02-25T08:59:06.633Z,7.85
2023-02-25T09:01:45.516Z,8.12
2023-02-25T09:04:15.053Z,8.25
2023-02-25T09:06:43.480Z,8.38
2023-02-25T09:09:13.364Z,8.46
2023-02-25T09:11:41.929Z,8.32
2023-02-25T09:14:10.943Z,8.51
2023-02-25T09:16:39.427Z,8.40
2023-02-25T09:19:08.601Z,8.41
2023-02-25T09:21:40.568Z,8.72
2023-02-25T09:24:09.881Z,8.72
2023-02-25T09:26:42.570Z,8.64
2023-02-25T09:29:11.100Z,8.84
2023-02-25T09:31:42.293Z,8.98
2023-02-25T09:34:13.935Z,8.98
2023-02-25T09:36:42.790Z,8.54
2023-02-25T09:39:12.655Z,8.85
2023-02-25T09:41:49.547Z,8.79
2023-02-25T09:44:21.594Z,8.62
2023-02-25T09:46:57.458Z,8.89
2023-02-25T09:49:36.408Z,8.34
2023-02-25T09:52:13.405Z,8.39
2023-02-25T09:54:45.759Z,8.65
2023-02-25T09:57:22.664Z,8.76
2023-02-25T09:59:53.787Z,8.31
2023-02-25T10:02:31.029Z,8.41
2023-02-25T10:05:15.858Z,8.81
2023-02-25T10:07:54.370Z,8.73
2023-02-25T10:10:28.448Z,8.77
2023-02-25T10:13:06.084Z,8.63
2023-02-25T10:15:52.812Z,8.73
2023-02-25T10:18:54.985Z,8.62
2023-02-25T10:21:46.723Z,8.91
2023-02-25T10:24:23.589Z,8.74
2023-02-25T10:26:56.180Z,8.63
2023-02-25T10:29:30.068Z,9.01
2023-02-25T10:32:13.268Z,8.58
2023-02-25T10:34:42.008Z,8.72
2023-02-25T10:37:18.500Z,9.13
2023-02-25T10:39:51.367Z,9.26
2023-02-25T10:42:22.729Z,9.23
2023-02-25T10:44:52.685Z,8.81
2023-02-25T10:47:31.093Z,8.83
2023-02-25T10:50:16.166Z,8.57
2023-02-25T10:52:56.757Z,8.79
2023-02-25T10:55:51.440Z,8.46
2023-02-25T10:58:34.530Z,8.59
2023-02-25T11:01:09.026Z,8.58
2023-02-25T11:03:46.465Z,8.71
2023-02-25T11:06:23.336Z,9.00
2023-02-25T11:08:53.091Z,9.08
2023-02-25T11:11:24.004Z,9.09
2023-02-25T11:13:59.946Z,9.20
2023-02-25T11:16:30.875Z,9.18
2023-02-25T11:19:02.775Z,9.61
2023-02-25T11:21:37.354Z,9.74
2023-02-25T11:24:11.708Z,9.91
2023-02-25T11:26:44.050Z,9.80
2023-02-25T11:29:17.951Z,10.12
2023-02-25T11:31:52.121Z,10.07
2023-02-25T11:34:23.785Z,10.30
2023-02-25T11:36:52.625Z,10.22
2023-02-25T11:39:23.520Z,10.14
2023-02-25T11:41:53.749Z,9.82
2023-02-25T11:44:26.880Z,10.15
2023-02-25T11:47:07.442Z,10.08
2023-02-25T11:50:08.032Z,10.21
2023-02-25T11:52:41.736Z,10.04
2023-02-25T11:55:25.068Z,10.21
2023-02-25T11:58:06.110Z,9.94
2023-02-25T12:00:45.021Z,10.23
2023-02-25T12:03:40.220Z,10.20
2023-02-25T12:06:24.025Z,10.22
2023-02-25T12:09:18.866Z,10.07
2023-02-25T12:12:08.817Z,10.23
2023-02-25T12:15:06.791Z,9.87
2023-02-25T12:18:11.714Z,9.92
2023-02-25T12:21:15.922Z,10.19
2023-02-25T12:24:15.518Z,10.18
2023-02-25T12:27:17.704Z,10.21
2023-02-25T12:30:08.573Z,10.21
2023-02-25T12:32:54.113Z,9.82
2023-02-25T12:35:41.532Z,10.18
2023-02-25T12:38:34.662Z,9.77
2023-02-25T12:41:30.591Z,9.98
2023-02-25T12:44:15.773Z,10.22
2023-02-25T12:47:02.004Z,9.98
2023-02-25T12:49:55.960Z,10.10
2023-02-25T12:52:38.554Z,10.08
2023-02-25T12:55:43.082Z,10.26
2023-02-25T12:58:27.816Z,10.39
2023-02-25T13:01:13.821Z,10.62
2023-02-25T13:04:29.474Z,10.51
2023-02-25T13:07:14.509Z,10.47
2023-02-25T13:10:00.288Z,10.19
2023-02-25T13:12:46.981Z,9.63
2023-02-25T13:15:21.513Z,9.48
2023-02-25T13:18:12.435Z,9.50
2023-02-25T13:20:57.183Z,9.10
2023-02-25T13:23:58.075Z,9.03
2023-02-25T13:26:46.480Z,8.61
2023-02-25T13:29:33.669Z,8.61
2023-02-25T13:32:18.819Z,8.79
2023-02-25T13:35:06.652Z,8.96
2023-02-25T13:37:47.221Z,8.92
2023-02-25T13:40:33.018Z,9.00
2023-02-25T13:43:21.773Z,9.03
2023-02-25T13:46:32.735Z,9.30
2023-02-25T13:49:17.402Z,9.23
2023-02-25T13:52:14.679Z,9.46
2023-02-25T13:55:17.696Z,9.47
2023-02-25T13:58:02.318Z,9.51
2023-02-25T14:01:01.158Z,9.46
2023-02-25T14:04:03.687Z,9.05
2023-02-25T14:06:47.407Z,9.06
2023-02-25T14:09:29.720Z,9.13
2023-02-25T14:12:12.411Z,9.18
2023-02-25T14:15:10.602Z,9.27
2023-02-25T14:17:56.334Z,9.19
2023-02-25T14:20:40.016Z,9.21
2023-02-25T14:23:17.156Z,9.38
2023-02-25T14:26:15.231Z,9.20
2023-02-25T14:28:52.869Z,9.05
2023-02-25T14:31:28.716Z,9.13
2023-02-25T14:34:13.027Z,9.03
2023-02-25T14:37:06.288Z,9.14
2023-02-25T14:39:49.320Z,9.18
2023-02-25T14:42:33.961Z,9.29
2023-02-25T14:45:16.031Z,9.35
2023-02-25T14:47:53.457Z,9.32
2023-02-25T14:50:26.736Z,9.24
2023-02-25T14:53:27.598Z,9.41
2023-02-25T14:56:27.320Z,9.25
2023-02-25T14:59:25.980Z,9.41
2023-02-25T15:02:23.264Z,9.18
2023-02-25T15:05:19.474Z,8.49
2023-02-25T15:08:04.561Z,7.64
2023-02-25T15:10:48.300Z,7.70
2023-02-25T15:13:30.587Z,7.69
2023-02-25T15:16:33.686Z,7.83
2023-02-25T15:19:44.802Z,7.88
2023-02-25T15:22:20.677Z,7.81
2023-02-25T15:24:49.502Z,7.84
2023-02-25T15:27:43.781Z,7.87
2023-02-25T15:30:15.670Z,7.72
2023-02-25T15:32:53.910Z,7.66
2023-02-25T15:35:24.644Z,7.82
2023-02-25T15:38:09.424Z,7.77
2023-02-25T15:40:47.303Z,7.76
2023-02-25T15:43:41.163Z,7.78
2023-02-25T15:46:43.212Z,7.52
2023-02-25T15:49:28.000Z,7.69
2023-02-25T15:51:58.936Z,7.69
2023-02-25T15:54:51.797Z,7.87
2023-02-25T15:57:41.947Z,7.92
2023-02-25T16:00:52.076Z,7.98
2023-02-25T16:03:42.257Z,7.90
2023-02-25T16:06:16.987Z,7.99
2023-02-25T16:08:56.746Z,7.99
2023-02-25T16:11:34.638Z,8.06
2023-02-25T16:14:07.311Z,8.12
2023-02-25T16:16:40.846Z,8.06
2023-02-25T16:19:17.404Z,8.15
2023-02-25T16:21:47.877Z,8.21
2023-02-25T16:24:17.556Z,8.21
2023-02-25T16:26:54.225Z,8.13
2023-02-25T16:29:33.873Z,7.67
2023-02-25T16:32:06.948Z,7.72
2023-02-25T16:34:43.620Z,7.15
2023-02-25T16:37:17.830Z,6.81
2023-02-25T16:39:46.592Z,6.84
2023-02-25T16:42:17.676Z,6.78
2023-02-25T16:44:52.893Z,6.84
2023-02-25T16:47:25.208Z,6.87
2023-02-25T16:49:56.666Z,6.82
2023-02-25T16:52:30.342Z,7.08
2023-02-25T16:55:01.105Z,7.12
2023-02-25T16:57:29.504Z,7.23
2023-02-25T17:00:14.737Z,7.28
2023-02-25T17:02:45.803Z,7.37
2023-02-25T17:05:27.325Z,7.38
2023-02-25T17:07:57.078Z,7.37
2023-02-25T17:10:27.961Z,7.52
2023-02-25T17:12:56.684Z,7.39
2023-02-25T17:15:28.068Z,7.48
2023-02-25T17:18:03.422Z,7.53
2023-02-25T17:20:33.225Z,7.46
2023-02-25T17:23:07.338Z,7.39
2023-02-25T17:25:40.017Z,7.41
2023-02-25T17:28:17.211Z,7.48
2023-02-25T17:30:47.367Z,7.49
2023-02-25T17:33:24.092Z,7.51
2023-02-25T17:35:58.637Z,7.42
2023-02-25T17:38:29.114Z,7.47
2023-02-25T17:40:59.213Z,7.58
2023-02-25T17:43:38.666Z,7.53
2023-02-25T17:46:18.644Z,7.57
2023-02-25T17:48:53.798Z,7.43
2023-02-25T17:51:33.359Z,7.36
2023-02-25T17:54:07.629Z,7.52
2023-02-25T17:56:37.059Z,7.53
2023-02-25T17:59:07.630Z,7.49
2023-02-25T18:01:53.782Z,7.55
2023-02-25T18:04:25.028Z,7.39
2023-02-25T18:06:56.260Z,7.34
2023-02-25T18:09:45.890Z,7.46
2023-02-25T18:12:24.287Z,7.42
2023-02-25T18:14:56.353Z,7.45
2023-02-25T18:17:28.349Z,7.46
2023-02-25T18:19:58.872Z,7.31
2023-02-25T18:22:33.825Z,7.29
2023-02-25T18:25:04.278Z,7.36
2023-02-25T18:27:33.727Z,7.27
2023-02-25T18:30:18.166Z,7.25
2023-02-25T18:32:46.967Z,7.36
2023-02-25T18:35:16.179Z,7.27
2023-02-25T18:37:47.511Z,7.07
2023-02-25T18:40:18.243Z,7.32
2023-02-25T18:42:46.624Z,6.75
2023-02-25T18:45:16.813Z,6.27
2023-02-25T18:47:45.472Z,6.21
2023-02-25T18:50:14.453Z,5.86
2023-02-25T18:52:43.428Z,5.23
2023-02-25T18:55:19.353Z,5.62
2023-02-25T18:57:47.917Z,5.78
2023-02-25T19:00:21.294Z,5.62
2023-02-25T19:02:52.065Z,5.88
2023-02-25T19:05:22.537Z,6.05
2023-02-25T19:07:51.654Z,6.16
2023-02-25T19:10:23.030Z,6.09
2023-02-25T19:12:53.531Z,6.28
2023-02-25T19:15:22.673Z,6.27
2023-02-25T19:17:50.725Z,6.39
2023-02-25T19:20:20.852Z,6.31
2023-02-25T19:22:51.074Z,6.29
2023-02-25T19:25:23.783Z,6.25
2023-02-25T19:27:52.750Z,6.29
2023-02-25T19:30:23.416Z,6.30
2023-02-25T19:32:51.501Z,6.12
2023-02-25T19:35:19.745Z,6.26
2023-02-25T19:37:48.417Z,5.99
2023-02-25T19:40:17.401Z,6.00
2023-02-25T19:42:47.130Z,6.23
2023-02-25T19:45:18.784Z,6.05
2023-02-25T19:47:47.418Z,6.20
2023-02-25T19:50:18.050Z,6.17
2023-02-25T19:52:46.302Z,6.19
2023-02-25T19:55:15.019Z,6.18
2023-02-25T19:57:44.083Z,6.10
2023-02-25T20:00:16.283Z,6.09
2023-02-25T20:02:45.353Z,6.04
2023-02-25T20:05:14.769Z,6.09
2023-02-25T20:07:44.291Z,6.10
2023-02-25T20:10:14.728Z,6.06
2023-02-25T20:12:45.105Z,6.08
2023-02-25T20:15:16.695Z,6.03
2023-02-25T20:17:46.221Z,5.77
2023-02-25T20:20:16.061Z,6.01
2023-02-25T20:22:44.522Z,5.92
2023-02-25T20:25:14.021Z,5.97
2023-02-25T20:27:43.587Z,6.02
2023-02-25T20:30:15.817Z,6.14
2023-02-25T20:32:46.185Z,6.11
2023-02-25T20:35:17.620Z,6.08
2023-02-25T20:37:55.012Z,6.10
2023-02-25T20:40:23.382Z,6.16
2023-02-25T20:42:52.035Z,6.19
2023-02-25T20:45:22.262Z,6.16
2023-02-25T20:47:50.726Z,6.09
2023-02-25T20:50:23.184Z,6.00
2023-02-25T20:52:51.534Z,5.81
2023-02-25T20:55:19.807Z,5.90
2023-02-25T20:57:47.779Z,5.87
2023-02-25T21:00:16.716Z,5.84
2023-02-25T21:02:46.829Z,5.84
2023-02-25T21:05:15.347Z,5.66
2023-02-25T21:07:43.495Z,5.75
2023-02-25T21:10:13.002Z,5.66
2023-02-25T21:12:41.298Z,5.73
2023-02-25T21:15:10.443Z,5.80
2023-02-25T21:17:38.758Z,5.82
2023-02-25T21:20:09.443Z,5.93
2023-02-25T21:22:37.845Z,5.94
2023-02-25T21:25:07.098Z,5.93
2023-02-25T21:27:35.227Z,5.77
2023-02-25T21:30:03.344Z,5.92
2023-02-25T21:32:31.907Z,5.87
2023-02-25T21:34:59.913Z,5.78
2023-02-25T21:37:29.220Z,5.83
2023-02-25T21:39:57.598Z,5.83
2023-02-25T21:42:25.553Z,5.90
2023-02-25T21:44:54.054Z,5.94
2023-02-25T21:47:22.733Z,5.98
2023-02-25T21:49:51.369Z,5.99
2023-02-25T21:52:19.440Z,6.01
2023-02-25T21:54:50.016Z,5.97
2023-02-25T21:57:18.045Z,5.92
2023-02-25T21:59:45.972Z,5.87
2023-02-25T22:02:14.351Z,5.98
2023-02-25T22:04:42.607Z,5.99
2023-02-25T22:07:11.015Z,5.97
2023-02-25T22:09:38.994Z,5.87
2023-02-25T22:12:08.518Z,5.95
2023-02-25T22:14:36.482Z,5.81
2023-02-25T22:17:04.792Z,5.97
2023-02-25T22:19:33.079Z,6.03
2023-02-25T22:22:01.037Z,6.01
2023-02-25T22:24:29.124Z,6.01
2023-02-25T22:26:57.455Z,6.07
2023-02-25T22:29:26.923Z,6.06
2023-02-25T22:31:54.897Z,6.03
2023-02-25T22:34:23.306Z,6.08
2023-02-25T22:36:51.220Z,6.08
2023-02-25T22:39:19.193Z,5.99
2023-02-25T22:41:47.498Z,6.00
2023-02-25T22:44:15.461Z,6.00
2023-02-25T22:46:44.852Z,6.08
2023-02-25T22:49:13.252Z,6.10
2023-02-25T22:51:43.298Z,6.07
2023-02-25T22:54:12.391Z,6.08
2023-02-25T22:56:40.972Z,5.97
2023-02-25T22:59:09.042Z,6.06
2023-02-25T23:01:38.070Z,6.11
2023-02-25T23:04:08.933Z,6.10
2023-02-25T23:06:44.114Z,6.13
2023-02-25T23:09:13.830Z,6.15
2023-02-25T23:11:43.724Z,6.17
2023-02-25T23:14:12.529Z,6.18
2023-02-25T23:16:43.390Z,6.12
2023-02-25T23:19:15.929Z,6.14
2023-02-25T23:21:44.881Z,6.10
2023-02-25T23:24:16.533Z,6.16
2023-02-25T23:26:46.347Z,6.11
2023-02-25T23:29:15.006Z,6.12
2023-02-25T23:31:45.795Z,6.24
2023-02-25T23:34:19.990Z,6.20
2023-02-25T23:36:48.000Z,6.21
2023-02-25T23:39:17.192Z,6.10
2023-02-25T23:41:45.580Z,6.18
2023-02-25T23:44:14.561Z,6.22
2023-02-25T23:46:45.215Z,6.26
2023-02-25T23:49:16.627Z,6.26
2023-02-25T23:51:46.851Z,6.16
2023-02-25T23:54:16.985Z,6.17
2023-02-25T23:56:45.867Z,6.15
2023-02-25T23:59:14.264Z,6.22
